Magdalena — V2PG8 — position and weather

sailwx.info

Track history (hours):
 
Tides and Currents Weather Stations Pressure Air Temp Water Temp Dewpoint Dewpoint Depression Visibility Wind Speed Wind Dir Waves Ship Positions

Magdalena

Last reported at 2017-Nov-19 02:00 UTC. Time now 2017-Nov-22 11:12 UTC.
Position N 51°33' E 002°21'.

Length 88 m; draft 5.1 m.

Type: Cargo ship. MMSI: 304682000.

Date/timePositionNaut miles runAvg speedWind from/ knotsBaromVisibWave heightAir tempDewpointWater temp
2017-Nov-19 02:00N 51°33' E 002°21'5 9.7
2017-Nov-19 01:30N 51°29' E 002°16'6 9.5
2017-Nov-19 00:54N 51°24' E 002°11'4 9.5
2017-Nov-19 00:30N 51°21' E 002°09'5 9.5
2017-Nov-19 00:00N 51°16' E 002°06'5 9.5
2017-Nov-18 23:30N 51°13' E 002°00'510.2
2017-Nov-18 23:00N 51°10' E 001°53'5 9.6
2017-Nov-18 22:30N 51°07' E 001°47'5 9.4
2017-Nov-18 22:00N 51°04' E 001°42'4 8.5
2017-Nov-18 21:30N 51°01' E 001°37'4 7.5
2017-Nov-18 20:58N 50°58' E 001°33'3 6.8
2017-Nov-18 20:30N 50°56' E 001°29'3 5.9
2017-Nov-18 20:00N 50°54' E 001°26'68 7.1
2017-Nov-18 10:19N 50°19' W 000°07'5411.6
2017-Nov-18 05:41N 50°05' W 001°28'210.7
2017-Nov-18 05:30N 50°04' W 001°31'510.1
2017-Nov-18 05:00N 50°03' W 001°38'67 7.5
2017-Nov-17 20:07N 49°50' W 003°20'103 6.6
2017-Nov-17 04:32N 50°29' W 005°49'1 8.2
2017-Nov-17 04:28N 50°29' W 005°48'5 8.1
2017-Nov-17 03:52N 50°32' W 005°42'3 8.0
2017-Nov-17 03:30N 50°34' W 005°38'4 7.9
2017-Nov-17 03:00N 50°36' W 005°33'4 7.9
2017-Nov-17 02:30N 50°38' W 005°28'4 8.2
2017-Nov-17 02:00N 50°42' W 005°24'4 8.4
2017-Nov-17 01:30N 50°45' W 005°20'4 8.6
2017-Nov-17 01:00N 50°48' W 005°16'4 8.8
2017-Nov-17 00:30N 50°52' W 005°12'5 9.0
2017-Nov-17 00:00N 50°56' W 005°08'5 9.3
2017-Nov-16 23:30N 50°59' W 005°03'5 9.5
2017-Nov-16 23:00N 51°03' W 004°59'5 9.7
2017-Nov-16 22:30N 51°07' W 004°54'510.0
2017-Nov-16 22:00N 51°11' W 004°49'510.2
2017-Nov-16 21:30N 51°15' W 004°44'510.5
2017-Nov-16 21:00N 51°18' W 004°37'611.2
2017-Nov-16 20:26N 51°21' W 004°28'7 0.2
2017-Nov-15 02:32N 51°27' W 004°36'0 9.7
2017-Nov-15 02:29N 51°27' W 004°37'5 9.9
2017-Nov-15 01:59N 51°29' W 004°44'510.1
2017-Nov-15 01:30N 51°30' W 004°52'510.5
2017-Nov-15 01:00N 51°30' W 004°60'510.5
2017-Nov-15 00:30N 51°31' W 005°08'510.4
2017-Nov-15 00:00N 51°31' W 005°17'510.1
2017-Nov-14 23:30N 51°31' W 005°25'5 9.9
2017-Nov-14 23:00N 51°32' W 005°33'5 9.6
2017-Nov-14 22:30N 51°32' W 005°41'50 8.3
2017-Nov-14 16:31N 52°00' W 006°47'0 9.2
2017-Nov-14 16:30N 52°00' W 006°47'5 8.9
2017-Nov-14 15:56N 52°04' W 006°53'4 9.3
2017-Nov-14 15:30N 52°07' W 006°57'4 8.1
2017-Nov-14 15:00N 52°11' W 006°56'4 8.2
2017-Nov-14 14:30N 52°15' W 006°59'3 6.4
2017-Nov-14 13:59N 52°18' W 007°01'3 7.1
2017-Nov-14 13:30N 52°21' W 006°60'1 0.0
2017-Nov-12 12:37N 52°20' W 006°60'1 5.6
2017-Nov-12 12:24N 52°19' W 007°00'2 6.3
2017-Nov-12 12:00N 52°16' W 006°59'3 6.1
2017-Nov-12 11:30N 52°14' W 006°57'5 8.9
2017-Nov-12 11:00N 52°09' W 006°57'1 1.2
2017-Nov-12 10:30N 52°09' W 006°58'0 0.3
2017-Nov-12 10:00N 52°09' W 006°58'0 0.1
2017-Nov-12 09:30N 52°09' W 006°58'0 0.0
2017-Nov-12 09:00N 52°09' W 006°58'0 0.0
2017-Nov-12 08:30N 52°09' W 006°58'0 0.1
2017-Nov-12 08:00N 52°09' W 006°58'0 0.1
2017-Nov-12 07:30N 52°09' W 006°58'0 0.1
2017-Nov-12 07:00N 52°09' W 006°58'0 0.0
2017-Nov-12 06:30N 52°09' W 006°58'0 0.0
2017-Nov-12 06:00N 52°09' W 006°58'0 0.1
2017-Nov-12 05:24N 52°09' W 006°58'0 0.0
2017-Nov-12 04:57N 52°09' W 006°58'0 0.0
2017-Nov-12 04:30N 52°09' W 006°58'0 0.0
2017-Nov-12 04:00N 52°09' W 006°58'0 0.0
2017-Nov-12 03:30N 52°09' W 006°58'0 0.0
2017-Nov-12 03:00N 52°09' W 006°58'0 0.0
2017-Nov-12 02:30N 52°09' W 006°58'0 0.0
2017-Nov-12 02:00N 52°09' W 006°58'0 0.0
2017-Nov-12 01:30N 52°09' W 006°58'0 0.0
2017-Nov-12 01:00N 52°09' W 006°58'0 0.0
2017-Nov-12 00:30N 52°09' W 006°58'0 0.0
2017-Nov-12 00:00N 52°09' W 006°58'0 0.0
2017-Nov-11 23:30N 52°09' W 006°58'0 0.1
2017-Nov-11 22:48N 52°09' W 006°58'0 0.0
2017-Nov-11 22:03N 52°09' W 006°58'0 0.1
2017-Nov-11 22:00N 52°09' W 006°58'0 0.0
2017-Nov-11 19:33N 52°09' W 006°58'0 0.0
2017-Nov-11 19:12N 52°09' W 006°58'0 0.3
2017-Nov-11 19:00N 52°09' W 006°58'1 1.4
2017-Nov-11 18:30N 52°08' W 006°58'4 7.9
2017-Nov-11 18:00N 52°04' W 006°58'5 8.8
2017-Nov-11 17:26N 51°59' W 006°57'4 8.9
2017-Nov-11 17:00N 51°55' W 006°57'4 8.7
2017-Nov-11 16:30N 51°51' W 006°56'4 8.5
2017-Nov-11 16:00N 51°47' W 006°56'171 4.7
2017-Nov-10 03:21N 49°58' W 003°27'3 8.8
2017-Nov-10 02:59N 49°58' W 003°22'5 8.5
2017-Nov-10 02:22N 49°59' W 003°14'3 8.2
2017-Nov-10 01:57N 49°59' W 003°09'4 8.0
2017-Nov-10 01:30N 49°60' W 003°03'4 7.6
2017-Nov-10 00:58N 50°01' W 002°57'3 7.3
2017-Nov-10 00:30N 50°01' W 002°52'42 7.8
2017-Nov-09 19:11N 50°11' W 001°49'411.0
2017-Nov-09 18:51N 50°12' W 001°43'411.3
2017-Nov-09 18:30N 50°13' W 001°38'611.5
2017-Nov-09 18:00N 50°15' W 001°29'56 8.9
2017-Nov-09 11:42N 50°30' W 000°04'1 6.8
2017-Nov-09 11:30N 50°30' W 000°02'23 7.9
2017-Nov-09 08:38N 50°38' E 000°32'1 9.6
2017-Nov-09 08:30N 50°39' E 000°33'5 9.7
2017-Nov-09 08:00N 50°41' E 000°40'5 9.7
2017-Nov-09 07:30N 50°44' E 000°46'5 9.5
2017-Nov-09 06:59N 50°47' E 000°52'23 8.1
2017-Nov-09 04:08N 51°01' E 001°21'1 6.6
2017-Nov-09 04:00N 51°02' E 001°22'5 6.3
2017-Nov-09 03:14N 51°05' E 001°28'2 6.8
2017-Nov-09 02:59N 51°06' E 001°30'3 7.0
2017-Nov-09 02:30N 51°08' E 001°35'4 7.5
2017-Nov-09 02:00N 51°10' E 001°39'  
Track history (hours):
 
Tides and Currents Weather Stations Pressure Air Temp Water Temp Dewpoint Dewpoint Depression Visibility Wind Speed Wind Dir Waves Ship Positions

Magdalena

Last reported at 2017-Nov-19 02:00 UTC. Time now 2017-Nov-22 11:12 UTC.
Position N 51°33' E 002°21'.

Length 88 m; draft 5.1 m.

Type: Cargo ship. MMSI: 304682000.

Date/timePositionNaut miles runAvg speedWind from/ knotsBaromVisibWave heightAir tempDewpointWater temp
2017-Nov-19 02:00N 51°33' E 002°21'5 9.7
2017-Nov-19 01:30N 51°29' E 002°16'6 9.5
2017-Nov-19 00:54N 51°24' E 002°11'4 9.5
2017-Nov-19 00:30N 51°21' E 002°09'5 9.5
2017-Nov-19 00:00N 51°16' E 002°06'5 9.5
2017-Nov-18 23:30N 51°13' E 002°00'510.2
2017-Nov-18 23:00N 51°10' E 001°53'5 9.6
2017-Nov-18 22:30N 51°07' E 001°47'5 9.4
2017-Nov-18 22:00N 51°04' E 001°42'4 8.5
2017-Nov-18 21:30N 51°01' E 001°37'4 7.5
2017-Nov-18 20:58N 50°58' E 001°33'3 6.8
2017-Nov-18 20:30N 50°56' E 001°29'3 5.9
2017-Nov-18 20:00N 50°54' E 001°26'68 7.1
2017-Nov-18 10:19N 50°19' W 000°07'5411.6
2017-Nov-18 05:41N 50°05' W 001°28'210.7
2017-Nov-18 05:30N 50°04' W 001°31'510.1
2017-Nov-18 05:00N 50°03' W 001°38'67 7.5
2017-Nov-17 20:07N 49°50' W 003°20'103 6.6
2017-Nov-17 04:32N 50°29' W 005°49'1 8.2
2017-Nov-17 04:28N 50°29' W 005°48'5 8.1
2017-Nov-17 03:52N 50°32' W 005°42'3 8.0
2017-Nov-17 03:30N 50°34' W 005°38'4 7.9
2017-Nov-17 03:00N 50°36' W 005°33'4 7.9
2017-Nov-17 02:30N 50°38' W 005°28'4 8.2
2017-Nov-17 02:00N 50°42' W 005°24'4 8.4
2017-Nov-17 01:30N 50°45' W 005°20'4 8.6
2017-Nov-17 01:00N 50°48' W 005°16'4 8.8
2017-Nov-17 00:30N 50°52' W 005°12'5 9.0
2017-Nov-17 00:00N 50°56' W 005°08'5 9.3
2017-Nov-16 23:30N 50°59' W 005°03'5 9.5
2017-Nov-16 23:00N 51°03' W 004°59'5 9.7
2017-Nov-16 22:30N 51°07' W 004°54'510.0
2017-Nov-16 22:00N 51°11' W 004°49'510.2
2017-Nov-16 21:30N 51°15' W 004°44'510.5
2017-Nov-16 21:00N 51°18' W 004°37'611.2
2017-Nov-16 20:26N 51°21' W 004°28'7 0.2
2017-Nov-15 02:32N 51°27' W 004°36'0 9.7
2017-Nov-15 02:29N 51°27' W 004°37'5 9.9
2017-Nov-15 01:59N 51°29' W 004°44'510.1
2017-Nov-15 01:30N 51°30' W 004°52'510.5
2017-Nov-15 01:00N 51°30' W 004°60'510.5
2017-Nov-15 00:30N 51°31' W 005°08'510.4
2017-Nov-15 00:00N 51°31' W 005°17'510.1
2017-Nov-14 23:30N 51°31' W 005°25'5 9.9
2017-Nov-14 23:00N 51°32' W 005°33'5 9.6
2017-Nov-14 22:30N 51°32' W 005°41'50 8.3
2017-Nov-14 16:31N 52°00' W 006°47'0 9.2
2017-Nov-14 16:30N 52°00' W 006°47'5 8.9
2017-Nov-14 15:56N 52°04' W 006°53'4 9.3
2017-Nov-14 15:30N 52°07' W 006°57'4 8.1
2017-Nov-14 15:00N 52°11' W 006°56'4 8.2
2017-Nov-14 14:30N 52°15' W 006°59'3 6.4
2017-Nov-14 13:59N 52°18' W 007°01'3 7.1
2017-Nov-14 13:30N 52°21' W 006°60'1 0.0
2017-Nov-12 12:37N 52°20' W 006°60'1 5.6
2017-Nov-12 12:24N 52°19' W 007°00'2 6.3
2017-Nov-12 12:00N 52°16' W 006°59'3 6.1
2017-Nov-12 11:30N 52°14' W 006°57'5 8.9
2017-Nov-12 11:00N 52°09' W 006°57'1 1.2
2017-Nov-12 10:30N 52°09' W 006°58'0 0.3
2017-Nov-12 10:00N 52°09' W 006°58'0 0.1
2017-Nov-12 09:30N 52°09' W 006°58'0 0.0
2017-Nov-12 09:00N 52°09' W 006°58'0 0.0
2017-Nov-12 08:30N 52°09' W 006°58'0 0.1
2017-Nov-12 08:00N 52°09' W 006°58'0 0.1
2017-Nov-12 07:30N 52°09' W 006°58'0 0.1
2017-Nov-12 07:00N 52°09' W 006°58'0 0.0
2017-Nov-12 06:30N 52°09' W 006°58'0 0.0
2017-Nov-12 06:00N 52°09' W 006°58'0 0.1
2017-Nov-12 05:24N 52°09' W 006°58'0 0.0
2017-Nov-12 04:57N 52°09' W 006°58'0 0.0
2017-Nov-12 04:30N 52°09' W 006°58'0 0.0
2017-Nov-12 04:00N 52°09' W 006°58'0 0.0
2017-Nov-12 03:30N 52°09' W 006°58'0 0.0
2017-Nov-12 03:00N 52°09' W 006°58'0 0.0
2017-Nov-12 02:30N 52°09' W 006°58'0 0.0
2017-Nov-12 02:00N 52°09' W 006°58'0 0.0
2017-Nov-12 01:30N 52°09' W 006°58'0 0.0
2017-Nov-12 01:00N 52°09' W 006°58'0 0.0
2017-Nov-12 00:30N 52°09' W 006°58'0 0.0
2017-Nov-12 00:00N 52°09' W 006°58'0 0.0
2017-Nov-11 23:30N 52°09' W 006°58'0 0.1
2017-Nov-11 22:48N 52°09' W 006°58'0 0.0
2017-Nov-11 22:03N 52°09' W 006°58'0 0.1
2017-Nov-11 22:00N 52°09' W 006°58'0 0.0
2017-Nov-11 19:33N 52°09' W 006°58'0 0.0
2017-Nov-11 19:12N 52°09' W 006°58'0 0.3
2017-Nov-11 19:00N 52°09' W 006°58'1 1.4
2017-Nov-11 18:30N 52°08' W 006°58'4 7.9
2017-Nov-11 18:00N 52°04' W 006°58'5 8.8
2017-Nov-11 17:26N 51°59' W 006°57'4 8.9
2017-Nov-11 17:00N 51°55' W 006°57'4 8.7
2017-Nov-11 16:30N 51°51' W 006°56'4 8.5
2017-Nov-11 16:00N 51°47' W 006°56'171 4.7
2017-Nov-10 03:21N 49°58' W 003°27'3 8.8
2017-Nov-10 02:59N 49°58' W 003°22'5 8.5
2017-Nov-10 02:22N 49°59' W 003°14'3 8.2
2017-Nov-10 01:57N 49°59' W 003°09'4 8.0
2017-Nov-10 01:30N 49°60' W 003°03'4 7.6
2017-Nov-10 00:58N 50°01' W 002°57'3 7.3
2017-Nov-10 00:30N 50°01' W 002°52'42 7.8
2017-Nov-09 19:11N 50°11' W 001°49'411.0
2017-Nov-09 18:51N 50°12' W 001°43'411.3
2017-Nov-09 18:30N 50°13' W 001°38'611.5
2017-Nov-09 18:00N 50°15' W 001°29'56 8.9
2017-Nov-09 11:42N 50°30' W 000°04'1 6.8
2017-Nov-09 11:30N 50°30' W 000°02'23 7.9
2017-Nov-09 08:38N 50°38' E 000°32'1 9.6
2017-Nov-09 08:30N 50°39' E 000°33'5 9.7
2017-Nov-09 08:00N 50°41' E 000°40'5 9.7
2017-Nov-09 07:30N 50°44' E 000°46'5 9.5
2017-Nov-09 06:59N 50°47' E 000°52'23 8.1
2017-Nov-09 04:08N 51°01' E 001°21'1 6.6
2017-Nov-09 04:00N 51°02' E 001°22'5 6.3
2017-Nov-09 03:14N 51°05' E 001°28'2 6.8
2017-Nov-09 02:59N 51°06' E 001°30'3 7.0
2017-Nov-09 02:30N 51°08' E 001°35'4 7.5
2017-Nov-09 02:00N 51°10' E 001°39'  

Dump ship's entire track history